createdAt,value
2022-08-11T00:01:59.802Z,1852.33
2022-08-11T00:04:28.316Z,1570.00
2022-08-11T00:06:57.390Z,1455.53
2022-08-11T00:09:39.653Z,1600.77
2022-08-11T00:12:13.782Z,1562.10
2022-08-11T00:14:42.088Z,1271.00
2022-08-11T00:17:12.181Z,1152.43
2022-08-11T00:20:11.513Z,1191.53
2022-08-11T00:22:31.728Z,1488.73
2022-08-11T00:25:02.393Z,1517.37
2022-08-11T00:27:34.719Z,1708.43
2022-08-11T00:30:02.681Z,1840.47
2022-08-11T00:32:31.231Z,1145.50
2022-08-11T00:35:52.533Z,1516.20
2022-08-11T00:37:51.563Z,947.63
2022-08-11T00:40:25.257Z,1414.87
2022-08-11T00:43:02.847Z,1896.93
2022-08-11T00:45:34.485Z,1540.80
2022-08-11T00:48:06.114Z,1908.23
2022-08-11T00:50:41.940Z,1563.93
2022-08-11T00:53:27.031Z,1073.23
2022-08-11T00:56:22.587Z,1641.13
2022-08-11T00:59:35.605Z,1160.13
2022-08-11T01:02:18.785Z,1614.77
2022-08-11T01:05:24.499Z,1888.87
2022-08-11T01:08:26.492Z,1235.03
2022-08-11T01:11:07.734Z,1867.13
2022-08-11T01:14:07.474Z,2001.80
2022-08-11T01:16:53.743Z,1754.33
2022-08-11T01:20:38.488Z,1943.87
2022-08-11T01:23:07.406Z,1423.87
2022-08-11T01:26:02.258Z,1719.87
2022-08-11T01:28:56.880Z,1297.77
2022-08-11T01:31:56.306Z,1375.77
2022-08-11T01:34:58.292Z,1636.10
2022-08-11T01:38:02.500Z,1666.93
2022-08-11T01:40:57.656Z,1379.47
2022-08-11T01:44:27.216Z,1725.67
2022-08-11T01:46:58.491Z,1260.20
2022-08-11T01:50:08.888Z,1151.57
2022-08-11T01:52:34.782Z,2206.77
2022-08-11T01:55:18.687Z,791.07
2022-08-11T01:57:54.393Z,1161.97
2022-08-11T02:00:23.460Z,782.63
2022-08-11T02:03:02.639Z,803.87
2022-08-11T02:05:46.829Z,780.60
2022-08-11T02:08:33.409Z,695.03
2022-08-11T02:11:28.269Z,579.30
2022-08-11T02:14:01.722Z,858.47
2022-08-11T02:16:37.406Z,1075.47
2022-08-11T02:19:31.392Z,816.07
2022-08-11T02:22:20.341Z,746.77
2022-08-11T02:25:02.190Z,807.07
2022-08-11T02:27:38.471Z,1057.93
2022-08-11T02:30:09.910Z,680.23
2022-08-11T02:32:58.156Z,730.27
2022-08-11T02:35:29.408Z,775.73
2022-08-11T02:38:10.087Z,676.57
2022-08-11T02:40:44.416Z,673.00
2022-08-11T02:43:27.976Z,571.23
2022-08-11T02:46:05.837Z,663.63
2022-08-11T02:48:58.624Z,589.97
2022-08-11T02:51:33.417Z,625.90
2022-08-11T02:54:11.294Z,682.83
2022-08-11T02:56:44.512Z,1628.47
2022-08-11T02:59:41.951Z,612.00
2022-08-11T03:02:16.707Z,1062.33
2022-08-11T03:04:56.661Z,1328.77
2022-08-11T03:07:29.658Z,1153.90
2022-08-11T03:10:04.860Z,1505.80
2022-08-11T03:12:55.530Z,1744.03
2022-08-11T03:15:50.497Z,1532.40
2022-08-11T03:18:26.792Z,1593.40
2022-08-11T03:21:00.293Z,1572.07
2022-08-11T03:23:31.764Z,1625.87
2022-08-11T03:26:03.928Z,1701.47
2022-08-11T03:28:35.592Z,1735.70
2022-08-11T03:31:11.670Z,1676.90
2022-08-11T03:34:05.676Z,1299.87
2022-08-11T03:37:17.515Z,862.10
2022-08-11T03:39:56.623Z,695.50
2022-08-11T03:42:29.014Z,866.63
2022-08-11T03:45:18.359Z,787.10
2022-08-11T03:47:55.889Z,744.23
2022-08-11T03:50:55.145Z,613.17
2022-08-11T03:53:36.827Z,604.33
2022-08-11T03:56:20.130Z,564.47
2022-08-11T03:59:28.665Z,802.80
2022-08-11T04:02:20.442Z,587.83
2022-08-11T04:05:24.679Z,584.97
2022-08-11T04:08:33.924Z,658.87
2022-08-11T04:11:22.916Z,1294.53
2022-08-11T04:14:25.066Z,550.20
2022-08-11T04:17:07.610Z,2266.67
2022-08-11T04:20:09.090Z,1199.60
2022-08-11T04:23:03.097Z,1061.43
2022-08-11T04:25:57.828Z,2266.67
2022-08-11T04:28:50.264Z,768.13
2022-08-11T04:31:51.949Z,969.90
2022-08-11T04:34:42.979Z,1709.87
2022-08-11T04:37:37.143Z,815.57
2022-08-11T04:40:19.468Z,1086.63
2022-08-11T04:43:25.554Z,549.73
2022-08-11T04:46:17.967Z,596.50
2022-08-11T04:49:11.987Z,778.43
2022-08-11T04:52:10.830Z,645.37
2022-08-11T04:55:20.680Z,590.77
2022-08-11T04:58:31.163Z,667.30
2022-08-11T05:01:31.018Z,525.80
2022-08-11T05:04:35.731Z,595.27
2022-08-11T05:07:42.905Z,2266.67
2022-08-11T05:10:19.417Z,576.70
2022-08-11T05:12:52.433Z,2266.67
2022-08-11T05:15:44.732Z,2266.67
2022-08-11T05:18:35.246Z,771.20
2022-08-11T05:21:25.189Z,703.40
2022-08-11T05:24:16.451Z,774.00
2022-08-11T05:27:08.746Z,2266.67
2022-08-11T05:30:04.744Z,2266.67
2022-08-11T05:33:00.950Z,2266.67
2022-08-11T05:36:00.650Z,2266.67
2022-08-11T05:38:43.747Z,830.97
2022-08-11T05:41:30.103Z,2266.67
2022-08-11T05:44:20.033Z,2266.67
2022-08-11T05:47:08.989Z,1134.60
2022-08-11T05:49:55.180Z,2266.67
2022-08-11T05:52:44.721Z,1699.83
2022-08-11T05:55:33.327Z,1880.97
2022-08-11T05:58:03.706Z,2266.67
2022-08-11T06:00:31.787Z,2266.67
2022-08-11T06:03:07.234Z,2266.67
2022-08-11T06:05:38.210Z,2266.67
2022-08-11T06:08:12.189Z,2200.00
2022-08-11T06:10:42.030Z,2266.67
2022-08-11T06:13:10.285Z,2266.67
2022-08-11T06:15:45.760Z,2266.67
2022-08-11T06:18:15.343Z,2266.67
2022-08-11T06:20:48.048Z,2266.67
2022-08-11T06:23:18.627Z,2229.30
2022-08-11T06:25:46.551Z,2266.67
2022-08-11T06:28:19.943Z,2264.50
2022-08-11T06:30:48.860Z,2266.67
2022-08-11T06:33:20.755Z,2266.67
2022-08-11T06:35:55.100Z,2266.37
2022-08-11T06:38:35.028Z,2252.40
2022-08-11T06:41:23.574Z,2266.67
2022-08-11T06:43:55.818Z,2266.67
2022-08-11T06:46:28.398Z,2266.67
2022-08-11T06:48:57.960Z,2266.67
2022-08-11T06:51:24.862Z,2266.67
2022-08-11T06:54:03.276Z,2266.67
2022-08-11T06:57:06.721Z,2250.40
2022-08-11T06:59:57.691Z,2061.50
2022-08-11T07:02:33.617Z,2266.67
2022-08-11T07:05:04.959Z,2266.67
2022-08-11T07:08:34.930Z,2266.67
2022-08-11T07:11:36.859Z,2266.67
2022-08-11T07:14:23.115Z,2266.67
2022-08-11T07:16:51.620Z,2266.67
2022-08-11T07:19:41.395Z,2266.67
2022-08-11T07:22:28.864Z,2266.67
2022-08-11T07:25:16.630Z,1713.27
2022-08-11T07:28:03.439Z,1195.87
2022-08-11T07:30:31.871Z,1877.03
2022-08-11T07:33:02.020Z,1879.73
2022-08-11T07:35:33.303Z,1894.50
2022-08-11T07:38:07.171Z,1697.97
2022-08-11T07:40:36.561Z,1654.90
2022-08-11T07:43:05.588Z,1895.53
2022-08-11T07:45:51.181Z,1580.20
2022-08-11T07:48:36.501Z,1513.40
2022-08-11T07:51:22.402Z,1330.37
2022-08-11T07:53:58.647Z,1835.27
2022-08-11T07:56:54.732Z,1933.73
2022-08-11T08:00:00.632Z,1643.80
2022-08-11T08:02:50.191Z,1742.00
2022-08-11T08:05:35.953Z,1885.73
2022-08-11T08:08:21.366Z,1879.63
2022-08-11T08:11:07.847Z,1846.13
2022-08-11T08:13:53.779Z,1725.23
2022-08-11T08:16:39.026Z,2266.67
2022-08-11T08:19:06.838Z,2266.67
2022-08-11T08:21:34.554Z,1838.57
2022-08-11T08:24:02.214Z,2266.67
2022-08-11T08:26:51.726Z,2266.67
2022-08-11T08:29:38.916Z,1869.40
2022-08-11T08:32:06.830Z,2266.67
2022-08-11T08:34:34.635Z,2266.67
2022-08-11T08:37:02.343Z,2266.67
2022-08-11T08:39:46.207Z,2266.67
2022-08-11T08:42:19.980Z,2266.67
2022-08-11T08:44:52.899Z,2266.67
2022-08-11T08:47:41.646Z,2266.67
2022-08-11T08:50:16.506Z,2266.67
2022-08-11T08:52:49.482Z,2266.67
2022-08-11T08:55:19.188Z,2266.67
2022-08-11T08:57:50.279Z,2021.40
2022-08-11T09:00:23.221Z,2266.67
2022-08-11T09:02:51.617Z,2266.67
2022-08-11T09:05:21.124Z,2266.67
2022-08-11T09:07:51.570Z,2266.67
2022-08-11T09:10:20.774Z,2266.67
2022-08-11T09:12:50.982Z,2266.67
2022-08-11T09:15:20.063Z,2266.67
2022-08-11T09:17:49.361Z,2266.67
2022-08-11T09:20:20.101Z,2266.67
2022-08-11T09:26:14.320Z,2266.67
2022-08-11T09:28:44.840Z,2266.67
2022-08-11T09:31:13.555Z,2266.67
2022-08-11T09:33:42.772Z,2266.67
2022-08-11T09:36:30.288Z,2266.67
2022-08-11T09:39:15.741Z,2266.67
2022-08-11T09:42:01.551Z,1876.93
2022-08-11T09:44:48.551Z,2266.67
2022-08-11T09:47:24.127Z,2008.33
2022-08-11T09:49:53.729Z,2266.67
2022-08-11T09:52:21.762Z,2266.67
2022-08-11T09:54:50.680Z,2266.67
2022-08-11T09:57:37.438Z,2266.67
2022-08-11T10:00:13.130Z,2266.67
2022-08-11T10:02:45.097Z,2266.67
2022-08-11T10:05:33.483Z,2266.67
2022-08-11T10:08:01.739Z,2266.67
2022-08-11T10:10:30.357Z,2266.67
2022-08-11T10:13:01.544Z,2266.67
2022-08-11T10:15:38.384Z,2266.67
2022-08-11T10:18:25.907Z,2266.67
2022-08-11T10:20:58.006Z,2266.67
2022-08-11T10:24:00.188Z,2266.67
2022-08-11T10:26:49.517Z,2266.67
2022-08-11T10:29:37.373Z,2266.67
2022-08-11T10:32:32.559Z,2146.57
2022-08-11T10:35:08.971Z,2266.67
2022-08-11T10:38:06.491Z,2266.67
2022-08-11T10:40:26.062Z,2266.67
2022-08-11T10:43:06.928Z,2266.67
2022-08-11T10:45:54.302Z,1972.50
2022-08-11T10:48:25.471Z,2266.67
2022-08-11T10:51:11.145Z,2266.67
2022-08-11T10:53:58.106Z,2266.67
2022-08-11T10:56:43.437Z,2266.67
2022-08-11T10:59:11.820Z,2266.67
2022-08-11T11:01:42.520Z,2266.67
2022-08-11T11:04:15.004Z,2266.67
2022-08-11T11:06:50.540Z,2266.67
2022-08-11T11:09:23.204Z,2235.50
2022-08-11T11:12:12.060Z,2266.67
2022-08-11T11:14:59.880Z,2266.67
2022-08-11T11:17:46.871Z,2011.63
2022-08-11T11:20:36.918Z,2266.67
2022-08-11T11:23:08.655Z,2266.67
2022-08-11T11:26:06.394Z,2266.67
2022-08-11T11:28:44.525Z,2266.67
2022-08-11T11:31:21.108Z,2266.67
2022-08-11T11:34:12.548Z,2266.67
2022-08-11T11:36:47.502Z,2266.67
2022-08-11T11:39:18.291Z,2266.67
2022-08-11T11:41:46.084Z,2266.67
2022-08-11T11:44:14.486Z,1991.30
2022-08-11T11:46:45.231Z,2020.97
2022-08-11T11:49:16.819Z,2026.37
2022-08-11T11:51:47.417Z,2039.77
2022-08-11T11:54:18.904Z,2015.73
2022-08-11T11:56:47.179Z,2025.17
2022-08-11T11:59:33.124Z,2053.60
2022-08-11T12:02:01.411Z,2023.90
2022-08-11T12:04:42.991Z,2009.67
2022-08-11T12:07:30.280Z,1985.23
2022-08-11T12:09:58.600Z,2043.30
2022-08-11T12:12:44.242Z,2060.67
2022-08-11T12:15:12.735Z,2033.37
2022-08-11T12:17:40.873Z,2093.90
2022-08-11T12:20:33.575Z,2015.07
2022-08-11T12:23:17.003Z,2266.67
2022-08-11T12:26:26.453Z,2144.90
2022-08-11T12:28:51.296Z,2266.67
2022-08-11T12:31:22.046Z,1980.50
2022-08-11T12:33:50.284Z,2037.17
2022-08-11T12:36:18.585Z,2019.73
2022-08-11T12:38:51.561Z,2002.53
2022-08-11T12:41:37.777Z,2019.07
2022-08-11T12:44:25.298Z,2132.17
2022-08-11T12:46:52.959Z,2101.43
2022-08-11T12:49:43.198Z,2266.67
2022-08-11T12:52:17.199Z,2000.10
2022-08-11T12:54:57.631Z,1843.47
2022-08-11T12:57:49.453Z,2266.67
2022-08-11T13:00:35.612Z,2066.00
2022-08-11T13:03:22.207Z,2266.67
2022-08-11T13:05:53.552Z,2016.83
2022-08-11T13:08:23.413Z,1886.10
2022-08-11T13:11:10.995Z,1870.57
2022-08-11T13:13:55.408Z,1841.97
2022-08-11T13:16:25.595Z,1889.50
2022-08-11T13:18:53.766Z,1893.57
2022-08-11T13:21:22.512Z,1121.97
2022-08-11T13:24:01.567Z,1871.07
2022-08-11T13:26:43.676Z,1885.20
2022-08-11T13:29:18.457Z,1887.03
2022-08-11T13:31:46.884Z,1832.37
2022-08-11T13:34:16.128Z,1682.77
2022-08-11T13:36:45.777Z,1555.90
2022-08-11T13:39:14.160Z,1592.33
2022-08-11T13:41:45.174Z,1567.83
2022-08-11T13:44:15.844Z,1608.73
2022-08-11T13:46:45.211Z,1479.33
2022-08-11T13:49:16.234Z,1551.57
2022-08-11T13:51:44.304Z,1858.67
2022-08-11T13:54:14.220Z,1823.23
2022-08-11T13:56:45.455Z,1833.53
2022-08-11T13:59:14.703Z,1898.57
2022-08-11T14:02:19.560Z,1823.70
2022-08-11T14:04:40.928Z,1809.73
2022-08-11T14:07:10.552Z,1787.47
2022-08-11T14:09:40.765Z,1890.77
2022-08-11T14:12:31.155Z,1895.37
2022-08-11T14:15:05.826Z,1796.50
2022-08-11T14:17:48.234Z,1894.47
2022-08-11T14:20:39.468Z,1911.37
2022-08-11T14:23:05.625Z,1896.93
2022-08-11T14:26:01.166Z,1731.10
2022-08-11T14:28:33.721Z,1883.20
2022-08-11T14:31:05.145Z,1915.40
2022-08-11T14:33:59.748Z,1822.63
2022-08-11T14:36:23.027Z,1976.33
2022-08-11T14:38:50.942Z,1849.77
2022-08-11T14:41:36.703Z,1899.03
2022-08-11T14:44:25.056Z,1929.53
2022-08-11T14:47:23.932Z,1911.47
2022-08-11T14:50:03.082Z,1973.07
2022-08-11T14:52:38.925Z,1836.93
2022-08-11T14:55:25.455Z,1962.47
2022-08-11T14:57:55.896Z,1913.17
2022-08-11T15:00:35.051Z,1903.03
2022-08-11T15:03:13.010Z,1824.10
2022-08-11T15:05:56.660Z,1926.73
2022-08-11T15:08:42.459Z,1924.40
2022-08-11T15:11:32.198Z,1924.90
2022-08-11T15:14:00.543Z,1933.10
2022-08-11T15:16:47.364Z,1803.63
2022-08-11T15:19:16.622Z,1895.40
2022-08-11T15:22:02.059Z,1894.87
2022-08-11T15:24:31.039Z,1930.43
2022-08-11T15:27:17.185Z,1905.87
2022-08-11T15:30:02.482Z,1637.57
2022-08-11T15:32:49.904Z,1906.00
2022-08-11T15:35:39.318Z,1989.17
2022-08-11T15:38:07.753Z,1862.33
2022-08-11T15:41:01.154Z,1975.43
2022-08-11T15:43:48.643Z,1967.20
2022-08-11T15:46:18.919Z,1889.93
2022-08-11T15:48:49.539Z,2030.33
2022-08-11T15:51:25.370Z,1906.30
2022-08-11T15:53:56.753Z,1899.43
2022-08-11T15:56:26.446Z,1940.93
2022-08-11T15:59:41.059Z,1940.70
2022-08-11T16:02:27.632Z,1924.17
2022-08-11T16:04:57.932Z,1926.30
2022-08-11T16:07:27.950Z,1930.17
2022-08-11T16:10:00.474Z,1850.37
2022-08-11T16:12:30.510Z,1988.80
2022-08-11T16:15:20.452Z,1486.87
2022-08-11T16:17:51.255Z,1916.57
2022-08-11T16:20:22.440Z,1972.40
2022-08-11T16:23:01.549Z,1894.20
2022-08-11T16:27:06.894Z,1883.30
2022-08-11T16:28:20.665Z,1921.97
2022-08-11T16:30:48.858Z,1915.17
2022-08-11T16:33:48.953Z,1919.87
2022-08-11T16:36:25.083Z,1899.57
2022-08-11T16:38:54.184Z,1873.10
2022-08-11T16:41:38.360Z,1871.70
2022-08-11T16:44:37.241Z,1910.47
2022-08-11T16:47:07.124Z,1927.60
2022-08-11T16:49:37.085Z,1864.03
2022-08-11T16:52:11.029Z,1864.73
2022-08-11T16:54:40.863Z,1936.10
2022-08-11T16:57:32.668Z,1903.10
2022-08-11T17:00:04.449Z,1907.53
2022-08-11T17:02:51.726Z,2019.60
2022-08-11T17:05:53.848Z,1854.13
2022-08-11T17:08:41.438Z,1950.67
2022-08-11T17:11:34.755Z,1882.47
2022-08-11T17:14:06.831Z,1932.67
2022-08-11T17:16:37.447Z,1461.17
2022-08-11T17:19:07.944Z,1888.43
2022-08-11T17:22:02.938Z,1876.30
2022-08-11T17:24:33.144Z,1927.10
2022-08-11T17:27:01.926Z,1696.17
2022-08-11T17:29:31.832Z,1579.80
2022-08-11T17:32:18.211Z,1819.67
2022-08-11T17:35:04.990Z,1669.07
2022-08-11T17:37:33.744Z,1787.37
2022-08-11T17:40:05.343Z,1782.77
2022-08-11T17:42:51.115Z,1808.80
2022-08-11T17:45:37.380Z,1671.50
2022-08-11T17:48:23.159Z,1816.93
2022-08-11T17:50:52.073Z,1674.60
2022-08-11T17:53:38.055Z,1802.70
2022-08-11T17:56:26.100Z,1727.23
2022-08-11T17:59:11.936Z,2055.90
2022-08-11T18:01:40.968Z,2053.53
2022-08-11T18:04:11.415Z,1919.87
2022-08-11T18:06:40.332Z,2086.43
2022-08-11T18:09:27.824Z,1268.03
2022-08-11T18:12:14.867Z,1905.40
2022-08-11T18:15:09.812Z,1220.27
2022-08-11T18:17:56.090Z,2266.67
2022-08-11T18:20:42.472Z,1194.33
2022-08-11T18:23:46.163Z,1817.73
2022-08-11T18:26:34.504Z,2015.57
2022-08-11T18:29:21.518Z,2027.17
2022-08-11T18:32:08.370Z,1771.37
2022-08-11T18:34:56.208Z,1850.90
2022-08-11T18:37:44.527Z,2012.23
2022-08-11T18:40:33.310Z,2266.67
2022-08-11T18:43:25.112Z,1537.67
2022-08-11T18:46:19.012Z,2266.67
2022-08-11T18:49:13.078Z,2080.50
2022-08-11T18:52:03.877Z,2266.67
2022-08-11T18:54:53.117Z,1900.23
2022-08-11T18:57:49.567Z,2266.67
2022-08-11T19:00:40.118Z,2266.67
2022-08-11T19:03:27.084Z,2266.67
2022-08-11T19:06:38.633Z,2266.67
2022-08-11T19:09:21.418Z,2266.67
2022-08-11T19:12:07.181Z,1589.57
2022-08-11T19:14:54.448Z,2266.67
2022-08-11T19:17:43.879Z,2266.67
2022-08-11T19:20:34.962Z,2266.67
2022-08-11T19:23:21.485Z,2266.67
2022-08-11T19:26:06.723Z,2266.67
2022-08-11T19:28:53.057Z,2266.67
2022-08-11T19:31:43.836Z,1918.87
2022-08-11T19:34:30.800Z,2266.67
2022-08-11T19:37:22.049Z,2266.67
2022-08-11T19:40:10.254Z,2266.67
2022-08-11T19:42:56.068Z,2266.67
2022-08-11T19:45:41.403Z,2266.67
2022-08-11T19:48:32.164Z,2266.67
2022-08-11T19:51:18.400Z,2266.67
2022-08-11T19:54:07.163Z,2266.67
2022-08-11T19:56:52.476Z,1405.30
2022-08-11T19:59:38.224Z,1940.00
2022-08-11T20:02:24.241Z,1406.93
2022-08-11T20:05:09.534Z,1300.97
2022-08-11T20:07:55.473Z,1333.93
2022-08-11T20:10:43.684Z,1228.70
2022-08-11T20:13:30.546Z,1301.20
2022-08-11T20:16:17.910Z,1241.73
2022-08-11T20:19:05.003Z,1729.87
2022-08-11T20:21:50.796Z,1286.60
2022-08-11T20:24:36.778Z,1200.53
2022-08-11T20:27:25.256Z,1152.23
2022-08-11T20:30:11.171Z,1193.50
2022-08-11T20:32:56.959Z,1150.67
2022-08-11T20:35:42.306Z,1317.30
2022-08-11T20:38:28.161Z,1455.93
2022-08-11T20:41:16.185Z,847.17
2022-08-11T20:44:06.808Z,1326.43
2022-08-11T20:46:55.139Z,802.53
2022-08-11T20:49:50.458Z,760.43
2022-08-11T20:52:40.506Z,728.47
2022-08-11T20:55:51.491Z,1195.43
2022-08-11T20:59:00.995Z,711.37
2022-08-11T21:01:42.195Z,1162.27
2022-08-11T21:04:27.784Z,730.60
2022-08-11T21:07:22.815Z,790.30
2022-08-11T21:10:22.814Z,606.40
2022-08-11T21:13:26.159Z,1138.73
2022-08-11T21:16:25.544Z,1257.77
2022-08-11T21:19:16.079Z,837.67
2022-08-11T21:22:01.355Z,644.50
2022-08-11T21:24:50.694Z,1218.00
2022-08-11T21:27:36.952Z,1153.93
2022-08-11T21:30:21.528Z,821.80
2022-08-11T21:33:07.358Z,1219.60
2022-08-11T21:35:54.463Z,1078.80
2022-08-11T21:38:39.855Z,1288.27
2022-08-11T21:41:25.867Z,1253.37
2022-08-11T21:44:12.211Z,825.83
2022-08-11T21:46:58.535Z,830.27
2022-08-11T21:49:44.933Z,1307.27
2022-08-11T21:52:32.159Z,828.63
2022-08-11T21:55:17.860Z,876.67
2022-08-11T21:58:03.911Z,1050.00
2022-08-11T22:00:49.337Z,857.00
2022-08-11T22:03:42.453Z,1107.53
2022-08-11T22:06:35.635Z,863.53
2022-08-11T22:09:22.107Z,1107.70
2022-08-11T22:12:29.902Z,646.83
2022-08-11T22:15:13.048Z,837.53
2022-08-11T22:17:58.449Z,866.53
2022-08-11T22:20:45.531Z,1089.17
2022-08-11T22:23:36.287Z,651.23
2022-08-11T22:26:24.417Z,874.07
2022-08-11T22:29:10.040Z,805.43
2022-08-11T22:31:55.820Z,886.60
2022-08-11T22:34:53.518Z,1180.57
2022-08-11T22:37:39.626Z,1060.63
2022-08-11T22:40:26.338Z,1111.17
2022-08-11T22:43:12.921Z,1180.40
2022-08-11T22:45:58.290Z,1094.70
2022-08-11T22:48:44.604Z,1075.37
2022-08-11T22:51:30.172Z,921.27
2022-08-11T22:54:16.027Z,1037.00
2022-08-11T22:57:01.636Z,1129.77
2022-08-11T22:59:48.271Z,680.93
2022-08-11T23:02:34.221Z,1088.30
2022-08-11T23:05:19.787Z,1173.87
2022-08-11T23:08:05.067Z,692.27
2022-08-11T23:10:51.333Z,1238.53
2022-08-11T23:13:36.754Z,1251.37
2022-08-11T23:16:23.888Z,1085.63
2022-08-11T23:19:09.619Z,1155.23
2022-08-11T23:21:55.807Z,1213.43
2022-08-11T23:24:40.954Z,1188.33
2022-08-11T23:27:27.738Z,1041.97
2022-08-11T23:30:17.169Z,1011.27
2022-08-11T23:33:07.824Z,1045.03
2022-08-11T23:35:55.526Z,1080.83
2022-08-11T23:38:43.287Z,1282.00
2022-08-11T23:41:28.730Z,1176.77
2022-08-11T23:44:14.190Z,754.67
2022-08-11T23:47:00.045Z,1061.83
2022-08-11T23:49:46.567Z,1258.17
2022-08-11T23:52:32.443Z,1182.50
2022-08-11T23:55:17.797Z,793.67
2022-08-11T23:58:03.079Z,1136.07
